createdAt,value
2022-11-19T00:00:35.195Z,11.87
2022-11-19T00:03:03.942Z,10.80
2022-11-19T00:05:32.647Z,10.17
2022-11-19T00:08:01.594Z,10.00
2022-11-19T00:10:30.220Z,10.27
2022-11-19T00:12:57.737Z,9.83
2022-11-19T00:15:27.778Z,9.10
2022-11-19T00:17:58.032Z,14.47
2022-11-19T00:20:26.618Z,19.67
2022-11-19T00:22:57.186Z,10.17
2022-11-19T00:25:27.593Z,9.70
2022-11-19T00:27:57.722Z,13.47
2022-11-19T00:30:47.868Z,12.10
2022-11-19T00:33:16.679Z,9.83
2022-11-19T00:35:45.368Z,8.90
2022-11-19T00:38:14.077Z,11.80
2022-11-19T00:40:43.729Z,11.87
2022-11-19T00:43:34.819Z,12.97
2022-11-19T00:46:04.788Z,12.60
2022-11-19T00:48:33.292Z,10.70
2022-11-19T00:51:01.871Z,9.03
2022-11-19T00:53:30.325Z,8.20
2022-11-19T00:56:01.870Z,7.07
2022-11-19T00:58:30.418Z,6.47
2022-11-19T01:00:59.173Z,6.13
2022-11-19T01:03:29.731Z,5.27
2022-11-19T01:05:58.678Z,5.60
2022-11-19T01:08:27.160Z,5.63
2022-11-19T01:10:55.630Z,5.53
2022-11-19T01:13:36.015Z,5.40
2022-11-19T01:16:21.679Z,5.37
2022-11-19T01:18:52.277Z,5.10
2022-11-19T01:21:22.967Z,5.00
2022-11-19T01:23:52.033Z,5.03
2022-11-19T01:26:20.835Z,4.90
2022-11-19T01:28:49.730Z,4.17
2022-11-19T01:31:20.309Z,4.30
2022-11-19T01:33:49.440Z,5.03
2022-11-19T01:36:20.769Z,4.63
2022-11-19T01:38:51.116Z,5.07
2022-11-19T01:41:20.450Z,4.30
2022-11-19T01:43:51.826Z,4.37
2022-11-19T01:46:23.086Z,4.63
2022-11-19T01:48:54.274Z,3.80
2022-11-19T01:51:28.152Z,3.93
2022-11-19T01:54:00.458Z,4.20
2022-11-19T01:56:30.723Z,4.20
2022-11-19T01:59:03.851Z,4.73
2022-11-19T02:01:33.876Z,3.67
2022-11-19T02:04:23.525Z,4.87
2022-11-19T02:06:55.088Z,5.00
2022-11-19T02:09:23.952Z,4.50
2022-11-19T02:12:16.176Z,4.83
2022-11-19T02:15:07.576Z,5.00
2022-11-19T02:17:55.690Z,4.90
2022-11-19T02:20:43.186Z,6.13
2022-11-19T02:23:46.701Z,5.13
2022-11-19T02:26:53.781Z,4.63
2022-11-19T02:29:49.792Z,5.10
2022-11-19T02:32:25.545Z,5.83
2022-11-19T02:34:59.562Z,4.70
2022-11-19T02:37:31.679Z,5.27
2022-11-19T02:40:06.161Z,4.77
2022-11-19T02:42:40.361Z,4.80
2022-11-19T02:45:14.764Z,4.90
2022-11-19T02:47:49.363Z,4.60
2022-11-19T02:50:21.639Z,4.70
2022-11-19T02:52:50.850Z,4.47
2022-11-19T02:55:21.160Z,4.33
2022-11-19T02:57:55.068Z,4.30
2022-11-19T03:00:41.392Z,4.17
2022-11-19T03:03:32.149Z,4.30
2022-11-19T03:06:03.446Z,4.27
2022-11-19T03:08:32.058Z,4.17
2022-11-19T03:11:09.565Z,4.77
2022-11-19T03:14:01.614Z,4.43
2022-11-19T03:16:42.570Z,4.77
2022-11-19T03:19:21.706Z,4.63
2022-11-19T03:21:55.708Z,3.87
2022-11-19T03:24:30.485Z,4.80
2022-11-19T03:27:04.079Z,4.43
2022-11-19T03:29:36.019Z,4.07
2022-11-19T03:32:08.586Z,4.57
2022-11-19T03:34:40.731Z,4.27
2022-11-19T03:37:11.078Z,3.90
2022-11-19T03:39:41.545Z,4.20
2022-11-19T03:42:13.898Z,3.63
2022-11-19T03:44:47.458Z,3.70
2022-11-19T03:47:20.489Z,3.43
2022-11-19T03:49:59.520Z,3.57
2022-11-19T03:52:28.187Z,3.73
2022-11-19T03:54:56.848Z,3.80
2022-11-19T03:57:27.497Z,3.73
2022-11-19T03:59:56.080Z,4.17
2022-11-19T04:02:24.699Z,3.57
2022-11-19T04:04:54.745Z,4.00
2022-11-19T04:07:25.286Z,3.90
2022-11-19T04:09:54.162Z,4.27
2022-11-19T04:12:24.470Z,4.03
2022-11-19T04:14:54.053Z,3.90
2022-11-19T04:17:22.990Z,4.20
2022-11-19T04:19:51.676Z,3.90
2022-11-19T04:22:21.859Z,3.97
2022-11-19T04:24:50.481Z,4.00
2022-11-19T04:27:19.077Z,4.03
2022-11-19T04:32:30.187Z,4.60
2022-11-19T04:34:58.933Z,3.93
2022-11-19T04:37:29.070Z,3.93
2022-11-19T04:39:57.699Z,3.70
2022-11-19T04:42:26.291Z,3.70
2022-11-19T04:44:55.062Z,3.80
2022-11-19T04:47:23.560Z,3.90
2022-11-19T04:49:51.962Z,3.20
2022-11-19T04:52:20.639Z,3.00
2022-11-19T04:54:50.540Z,3.30
2022-11-19T04:57:18.972Z,3.40
2022-11-19T04:59:47.348Z,3.67
2022-11-19T05:02:15.694Z,3.40
2022-11-19T05:04:44.121Z,3.60
2022-11-19T05:07:12.582Z,3.80
2022-11-19T05:09:41.046Z,3.40
2022-11-19T05:12:10.985Z,3.17
2022-11-19T05:14:39.545Z,3.33
2022-11-19T05:17:08.147Z,3.20
2022-11-19T05:19:36.582Z,3.30
2022-11-19T05:22:05.021Z,3.27
2022-11-19T05:24:33.599Z,2.97
2022-11-19T05:27:02.020Z,3.30
2022-11-19T05:29:31.880Z,2.70
2022-11-19T05:32:00.372Z,3.00
2022-11-19T05:34:28.986Z,2.93
2022-11-19T05:36:57.832Z,2.87
2022-11-19T05:39:26.491Z,2.70
2022-11-19T05:41:55.193Z,2.87
2022-11-19T05:44:23.875Z,2.70
2022-11-19T05:46:55.370Z,2.80
2022-11-19T05:49:24.108Z,3.30
2022-11-19T05:51:52.779Z,3.07
2022-11-19T05:54:21.387Z,3.10
2022-11-19T05:56:49.883Z,3.33
2022-11-19T05:59:18.531Z,2.80
2022-11-19T06:01:47.159Z,3.10
2022-11-19T06:04:17.194Z,2.60
2022-11-19T06:06:45.809Z,3.17
2022-11-19T06:09:14.655Z,3.10
2022-11-19T06:11:51.773Z,2.70
2022-11-19T06:14:22.341Z,2.70
2022-11-19T06:16:51.441Z,2.53
2022-11-19T06:19:22.030Z,2.90
2022-11-19T06:21:51.526Z,2.83
2022-11-19T06:24:20.705Z,2.70
2022-11-19T06:26:49.305Z,3.00
2022-11-19T06:29:19.060Z,3.67
2022-11-19T06:31:48.162Z,3.40
2022-11-19T06:34:16.782Z,3.43
2022-11-19T06:36:50.495Z,3.40
2022-11-19T06:39:19.796Z,3.53
2022-11-19T06:41:48.952Z,3.27
2022-11-19T06:44:17.510Z,3.40
2022-11-19T22:30:25.830Z,38.43
2022-11-19T22:32:54.346Z,39.17
2022-11-19T22:35:22.832Z,40.00
2022-11-19T22:37:51.237Z,38.77
2022-11-19T22:40:19.801Z,38.50
2022-11-19T22:42:49.279Z,37.87
2022-11-19T22:45:17.957Z,36.57
2022-11-19T22:47:47.571Z,36.67
2022-11-19T22:50:16.150Z,35.17
2022-11-19T22:52:44.539Z,35.20
2022-11-19T22:55:13.495Z,35.13
2022-11-19T22:57:42.482Z,34.47
2022-11-19T23:00:13.247Z,32.67
2022-11-19T23:02:41.747Z,33.10
2022-11-19T23:05:11.970Z,30.23
2022-11-19T23:07:43.367Z,28.93
2022-11-19T23:10:12.013Z,25.50
2022-11-19T23:12:57.797Z,24.93
2022-11-19T23:15:26.277Z,24.20
2022-11-19T23:17:54.718Z,23.20
2022-11-19T23:20:24.628Z,25.67
2022-11-19T23:22:52.989Z,24.87
2022-11-19T23:25:21.344Z,24.17
2022-11-19T23:28:07.212Z,20.30
2022-11-19T23:30:35.584Z,15.93
2022-11-19T23:33:03.967Z,16.27
2022-11-19T23:35:36.774Z,15.27
2022-11-19T23:38:05.320Z,12.17
2022-11-19T23:40:33.838Z,13.70
2022-11-19T23:43:02.411Z,11.67
2022-11-19T23:45:31.125Z,11.80
2022-11-19T23:48:00.142Z,10.27
2022-11-19T23:50:28.606Z,10.90
2022-11-19T23:52:58.371Z,10.10
2022-11-19T23:55:26.918Z,9.83
2022-11-19T23:57:55.565Z,10.47
